»·PEaware :: N720G L52-L88

N720G :: L52-L88

FLIGHT INFORMATION

Flight Status: Arrived
Operator: Privately registered:
United States
More flights under this callsign
Pilot: Scott T. (13198)
Aircraft: CESSNA 172 SKYHAWK
(C172)
More flights by this aircraft type
Origin: L52 Oceano Co
United States
Destination: L88 New Cuyama
United States
More flights between these airports :: More routes between these airports
Route: EN-ROUTE BETWEEN L52 AND L88
File this flight plan on PilotEdge
Remarks: VFR FLIGHT FROM L52 To L88
Altitude:
(Current/Filed)
8,500ft
Speed:
(Current/Filed)
110kts
Departed: 29-Sep-19 08:26 PM
Arrived: 29-Sep-19 08:59 PM
Distance/Time
Traveled:
47nm/0:33
Distance/Time
To Go:
Arrived

Flight Plot

Page will automatically refresh every two minutes.

Flight plan parsing failed; only flown route is shown


Map Options




Map Legend


Flown Route
Filed Route
Departure Airport
Arrival Airport
Navaid (VOR, NDB)
Fix

Horizontal Profiles

Position Reports

Time Latitude Longitude Heading Altitude Ground
Speed
29-Sep-19 19:48 35.101781 -120.624488 345 14ft 0kts
29-Sep-19 19:49 35.101781 -120.624488 345 14ft 0kts
29-Sep-19 19:50 35.101781 -120.624488 345 14ft 0kts
29-Sep-19 19:51 35.101781 -120.624488 345 14ft 0kts
29-Sep-19 19:52 35.101781 -120.624488 345 14ft 0kts
29-Sep-19 19:53 35.101781 -120.624488 345 14ft 0kts
29-Sep-19 19:54 35.101781 -120.624488 345 14ft 0kts
29-Sep-19 19:55 35.101781 -120.624488 345 14ft 0kts
29-Sep-19 19:56 35.101781 -120.624488 345 14ft 0kts
29-Sep-19 19:57 35.101781 -120.624488 345 14ft 0kts
29-Sep-19 19:58 35.101781 -120.624488 345 14ft 0kts
29-Sep-19 19:59 35.101781 -120.624488 345 14ft 0kts
29-Sep-19 20:00 35.101781 -120.624488 345 14ft 0kts
29-Sep-19 20:01 35.101781 -120.624488 345 14ft 0kts
29-Sep-19 20:01 35.101781 -120.624488 345 14ft 0kts
29-Sep-19 20:02 35.101781 -120.624488 345 14ft 0kts
29-Sep-19 20:04 35.101781 -120.624488 345 14ft 0kts
29-Sep-19 20:04 35.101781 -120.624488 345 14ft 0kts
29-Sep-19 20:05 35.101781 -120.624488 345 14ft 0kts
29-Sep-19 20:06 35.101781 -120.624488 345 14ft 0kts
29-Sep-19 20:08 35.101781 -120.624488 345 14ft 0kts
29-Sep-19 20:08 35.101781 -120.624488 345 14ft 0kts
29-Sep-19 20:09 35.101790 -120.624491 344 14ft 0kts
29-Sep-19 20:10 35.101626 -120.623362 122 14ft 14kts
29-Sep-19 20:11 35.099559 -120.619585 164 17ft 4kts
29-Sep-19 20:12 35.099453 -120.619512 34 17ft 0kts
29-Sep-19 20:13 35.099453 -120.619512 35 17ft 0kts
29-Sep-19 20:14 35.099453 -120.619512 35 17ft 0kts
29-Sep-19 20:15 35.099453 -120.619512 35 17ft 0kts
29-Sep-19 20:16 35.099453 -120.619512 35 17ft 0kts
29-Sep-19 20:17 35.099453 -120.619512 35 17ft 0kts
29-Sep-19 20:18 35.099453 -120.619512 35 17ft 0kts
29-Sep-19 20:19 35.099453 -120.619512 35 17ft 0kts
29-Sep-19 20:20 35.099453 -120.619512 35 17ft 0kts
29-Sep-19 20:21 35.099453 -120.619512 35 17ft 0kts
29-Sep-19 20:22 35.099453 -120.619512 35 17ft 0kts
29-Sep-19 20:23 35.099453 -120.619512 35 17ft 0kts
29-Sep-19 20:24 35.099973 -120.619328 296 17ft 1kts
29-Sep-19 20:25 35.106315 -120.631517 306 431ft 63kts
29-Sep-19 20:26 35.115293 -120.617898 86 1130ft 94kts
29-Sep-19 20:27 35.113865 -120.590644 94 1862ft 95kts
29-Sep-19 20:28 35.110032 -120.562332 97 2594ft 94kts
29-Sep-19 20:29 35.105282 -120.529657 97 3370ft 94kts
29-Sep-19 20:30 35.100852 -120.498371 97 4064ft 96kts
29-Sep-19 20:31 35.096846 -120.466947 97 4552ft 112kts
29-Sep-19 20:32 35.091366 -120.425930 97 5107ft 114kts
29-Sep-19 20:33 35.086290 -120.387450 97 5620ft 114kts
29-Sep-19 20:34 35.082151 -120.356022 97 6041ft 114kts
29-Sep-19 20:35 35.078849 -120.330694 98 6373ft 113kts
29-Sep-19 20:36 35.075856 -120.307586 98 6676ft 112kts
29-Sep-19 20:37 35.071345 -120.272527 98 7143ft 110kts
29-Sep-19 20:38 35.064325 -120.237812 109 7625ft 107kts
29-Sep-19 20:39 35.055101 -120.204455 109 8109ft 104kts
29-Sep-19 20:40 35.046275 -120.172526 109 8585ft 100kts
29-Sep-19 20:41 35.037758 -120.141405 109 8975ft 106kts
29-Sep-19 20:42 35.028070 -120.106264 109 8690ft 109kts
29-Sep-19 20:43 35.019011 -120.073232 109 8395ft 104kts
29-Sep-19 20:44 35.011514 -120.043042 102 8175ft 97kts
29-Sep-19 20:45 35.006414 -120.011819 102 7920ft 95kts
29-Sep-19 20:46 35.001424 -119.980961 102 7660ft 95kts
29-Sep-19 20:47 34.996426 -119.950222 102 7407ft 95kts
29-Sep-19 20:48 34.991387 -119.919483 102 7161ft 94kts
29-Sep-19 20:49 34.986235 -119.888314 102 6916ft 94kts
29-Sep-19 20:50 34.981212 -119.858174 102 6684ft 94kts
29-Sep-19 20:51 34.976318 -119.828948 102 5980ft 93kts
29-Sep-19 20:52 34.971213 -119.798284 102 5177ft 94kts
29-Sep-19 20:53 34.966748 -119.771510 102 4807ft 91kts
29-Sep-19 20:54 34.958199 -119.745164 112 4413ft 89kts
29-Sep-19 20:55 34.948785 -119.718658 116 3976ft 90kts
29-Sep-19 20:56 34.939922 -119.697236 118 3453ft 75kts
29-Sep-19 20:57 34.933607 -119.677509 21 2738ft 65kts
29-Sep-19 20:58 34.941400 -119.689129 295 2162ft 28kts
29-Sep-19 20:59 34.943866 -119.691134 12 2153ft 13kts
29-Sep-19 21:00 34.944001 -119.691008 192 2153ft 0kts
29-Sep-19 21:01 34.944001 -119.691008 192 2153ft 0kts
29-Sep-19 21:02 34.944001 -119.691008 192 2153ft 0kts
29-Sep-19 21:03 34.944001 -119.691008 192 2153ft 0kts
29-Sep-19 21:04 34.944001 -119.691008 192 2153ft 0kts
29-Sep-19 21:05 34.944001 -119.691008 192 2153ft 0kts
29-Sep-19 21:06 34.944001 -119.691008 192 2153ft 0kts

Navigation Log

Ident Type
Flight plan parsing failed, navigation log unavailable